createdAt,value
2022-07-26T00:01:23.647Z,3.97
2022-07-26T00:03:55.936Z,4.22
2022-07-26T00:06:25.537Z,3.80
2022-07-26T00:08:54.395Z,4.00
2022-07-26T00:11:23.544Z,3.60
2022-07-26T00:13:51.802Z,3.70
2022-07-26T00:16:21.872Z,4.65
2022-07-26T00:18:50.159Z,4.05
2022-07-26T00:21:19.821Z,4.38
2022-07-26T00:23:48.218Z,3.80
2022-07-26T00:26:16.625Z,4.38
2022-07-26T00:28:45.113Z,3.92
2022-07-26T00:31:13.750Z,4.07
2022-07-26T00:33:42.154Z,4.22
2022-07-26T00:36:10.653Z,4.50
2022-07-26T00:38:40.567Z,4.20
2022-07-26T00:41:09.475Z,4.28
2022-07-26T00:43:37.946Z,4.18
2022-07-26T00:46:06.708Z,4.57
2022-07-26T00:48:35.078Z,4.25
2022-07-26T00:51:03.361Z,4.53
2022-07-26T00:53:31.566Z,4.75
2022-07-26T00:56:01.247Z,4.90
2022-07-26T00:58:29.460Z,4.45
2022-07-26T01:00:57.786Z,3.83
2022-07-26T01:03:29.069Z,4.65
2022-07-26T01:05:58.743Z,4.07
2022-07-26T01:08:27.204Z,3.95
2022-07-26T01:10:55.853Z,4.68
2022-07-26T01:13:30.684Z,4.53
2022-07-26T01:16:01.608Z,4.10
2022-07-26T01:18:30.016Z,4.63
2022-07-26T01:21:01.725Z,4.90
2022-07-26T01:23:43.028Z,4.38
2022-07-26T01:26:11.727Z,4.63
2022-07-26T01:28:42.517Z,5.50
2022-07-26T01:31:10.980Z,4.88
2022-07-26T01:33:39.383Z,4.78
2022-07-26T01:36:08.268Z,4.90
2022-07-26T01:38:36.712Z,5.10
2022-07-26T01:41:06.790Z,4.95
2022-07-26T01:43:35.204Z,4.95
2022-07-26T01:46:03.827Z,4.72
2022-07-26T01:48:33.021Z,4.53
2022-07-26T01:51:01.503Z,5.13
2022-07-26T01:53:29.868Z,4.53
2022-07-26T01:55:58.483Z,5.30
2022-07-26T01:58:28.143Z,5.13
2022-07-26T02:00:56.440Z,5.10
2022-07-26T02:03:24.739Z,4.82
2022-07-26T02:05:53.056Z,4.70
2022-07-26T02:08:22.323Z,4.53
2022-07-26T02:11:03.602Z,5.03
2022-07-26T02:13:36.055Z,4.68
2022-07-26T02:16:06.737Z,4.70
2022-07-26T02:18:36.558Z,5.20
2022-07-26T02:21:06.903Z,5.00
2022-07-26T02:23:36.039Z,4.90
2022-07-26T02:26:09.691Z,4.50
2022-07-26T02:28:39.398Z,4.45
2022-07-26T02:31:07.745Z,4.07
2022-07-26T02:33:36.073Z,4.68
2022-07-26T02:36:04.667Z,4.80
2022-07-26T02:38:32.939Z,5.13
2022-07-26T02:41:01.251Z,4.57
2022-07-26T02:43:30.608Z,4.65
2022-07-26T02:46:01.649Z,4.53
2022-07-26T02:48:31.575Z,5.25
2022-07-26T02:51:00.054Z,4.72
2022-07-26T02:53:28.793Z,4.20
2022-07-26T02:55:57.007Z,4.20
2022-07-26T02:58:26.891Z,4.53
2022-07-26T03:00:55.390Z,4.68
2022-07-26T03:03:25.138Z,4.65
2022-07-26T03:05:53.396Z,4.60
2022-07-26T03:08:21.833Z,4.15
2022-07-26T03:10:50.327Z,4.30
2022-07-26T03:13:18.717Z,3.88
2022-07-26T03:15:47.058Z,3.88
2022-07-26T03:18:15.376Z,4.45
2022-07-26T03:20:45.882Z,3.67
2022-07-26T03:23:14.158Z,4.03
2022-07-26T03:25:42.348Z,5.15
2022-07-26T03:28:13.653Z,5.03
2022-07-26T03:30:44.583Z,4.45
2022-07-26T03:33:12.840Z,5.07
2022-07-26T03:35:41.196Z,4.63
2022-07-26T03:38:11.569Z,4.53
2022-07-26T03:40:39.923Z,4.30
2022-07-26T03:43:08.210Z,4.18
2022-07-26T03:45:36.964Z,4.55
2022-07-26T03:48:06.116Z,5.53
2022-07-26T03:50:34.680Z,4.82
2022-07-26T03:53:02.915Z,5.22
2022-07-26T03:55:49.910Z,4.75
2022-07-26T03:58:19.198Z,5.32
2022-07-26T04:00:47.751Z,5.35
2022-07-26T04:03:16.044Z,5.15
2022-07-26T04:05:49.051Z,5.72
2022-07-26T04:08:17.610Z,4.97
2022-07-26T04:10:51.224Z,5.00
2022-07-26T04:13:19.732Z,5.57
2022-07-26T04:15:48.176Z,5.25
2022-07-26T04:18:16.634Z,5.13
2022-07-26T04:20:45.403Z,5.05
2022-07-26T04:23:13.987Z,5.18
2022-07-26T04:25:42.658Z,4.93
2022-07-26T04:28:13.452Z,4.57
2022-07-26T04:30:42.576Z,3.80
2022-07-26T04:33:11.148Z,4.78
2022-07-26T04:35:39.497Z,5.07
2022-07-26T04:38:07.747Z,4.63
2022-07-26T04:40:40.746Z,4.88
2022-07-26T04:43:15.414Z,3.72
2022-07-26T04:45:44.758Z,4.05
2022-07-26T04:48:13.336Z,3.60
2022-07-26T04:50:42.080Z,4.07
2022-07-26T04:53:11.128Z,3.72
2022-07-26T04:55:39.943Z,4.03
2022-07-26T04:58:08.594Z,4.07
2022-07-26T05:01:02.610Z,3.40
2022-07-26T05:03:27.267Z,3.47
2022-07-26T05:05:55.655Z,3.38
2022-07-26T05:08:24.017Z,3.40
2022-07-26T05:10:55.639Z,3.38
2022-07-26T05:13:30.046Z,3.17
2022-07-26T05:16:01.827Z,3.10
2022-07-26T05:18:45.863Z,2.95
2022-07-26T05:21:19.629Z,3.05
2022-07-26T05:23:48.417Z,3.15
2022-07-26T05:26:17.955Z,2.90
2022-07-26T05:28:46.345Z,3.40
2022-07-26T05:31:17.021Z,3.17
2022-07-26T05:33:45.537Z,3.35
2022-07-26T05:36:13.878Z,3.17
2022-07-26T05:38:42.238Z,3.05
2022-07-26T05:41:10.578Z,3.15
2022-07-26T05:43:41.311Z,3.20
2022-07-26T05:46:11.855Z,3.03
2022-07-26T05:48:42.154Z,3.25
2022-07-26T05:51:10.911Z,3.10
2022-07-26T05:53:39.738Z,3.20
2022-07-26T05:56:08.834Z,3.13
2022-07-26T05:58:38.106Z,2.83
2022-07-26T06:01:06.860Z,2.83
2022-07-26T06:03:35.157Z,2.90
2022-07-26T06:06:05.948Z,3.15
2022-07-26T06:08:34.539Z,3.53
2022-07-26T06:11:02.901Z,3.50
2022-07-26T06:13:31.267Z,3.47
2022-07-26T06:15:59.630Z,3.63
2022-07-26T06:18:28.036Z,3.47
2022-07-26T06:20:56.885Z,3.65
2022-07-26T06:23:34.634Z,3.63
2022-07-26T06:26:05.290Z,3.30
2022-07-26T06:28:34.278Z,3.17
2022-07-26T06:31:02.580Z,3.92
2022-07-26T06:33:31.073Z,3.75
2022-07-26T06:36:00.576Z,3.85
2022-07-26T06:38:30.768Z,3.42
2022-07-26T06:40:59.523Z,4.00
2022-07-26T06:43:27.802Z,3.85
2022-07-26T06:45:56.240Z,3.55
2022-07-26T06:48:24.561Z,3.45
2022-07-26T06:50:53.032Z,3.58
2022-07-26T06:53:21.373Z,3.53
2022-07-26T06:55:52.841Z,3.38
2022-07-26T06:58:21.287Z,3.85
2022-07-26T07:00:49.561Z,3.67
2022-07-26T07:03:17.954Z,3.42
2022-07-26T07:05:49.935Z,3.53
2022-07-26T07:08:19.580Z,3.60
2022-07-26T07:10:50.904Z,3.67
2022-07-26T07:13:19.724Z,3.35
2022-07-26T07:15:47.991Z,3.33
2022-07-26T07:18:16.498Z,3.45
2022-07-26T07:20:44.924Z,3.10
2022-07-26T07:23:13.226Z,3.00
2022-07-26T07:25:41.514Z,3.03
2022-07-26T07:28:14.677Z,2.92
2022-07-26T07:30:43.441Z,3.00
2022-07-26T07:33:22.863Z,3.03
2022-07-26T07:35:53.771Z,2.75
2022-07-26T07:38:22.382Z,3.10
2022-07-26T07:40:51.155Z,3.47
2022-07-26T07:43:20.874Z,2.50
2022-07-26T07:45:49.128Z,2.87
2022-07-26T07:48:17.571Z,3.25
2022-07-26T07:50:46.318Z,3.13
2022-07-26T07:53:14.725Z,3.10
2022-07-26T07:55:46.102Z,3.22
2022-07-26T07:58:17.326Z,3.10
2022-07-26T08:00:48.474Z,3.38
2022-07-26T08:03:18.745Z,3.28
2022-07-26T08:05:49.459Z,2.90
2022-07-26T08:08:22.285Z,2.95
2022-07-26T08:10:53.330Z,3.08
2022-07-26T08:13:22.970Z,2.88
2022-07-26T08:15:54.347Z,3.20
2022-07-26T08:18:25.236Z,3.22
2022-07-26T08:20:55.080Z,3.60
2022-07-26T08:23:24.199Z,2.92
2022-07-26T08:25:58.021Z,2.60
2022-07-26T08:31:21.026Z,3.17
2022-07-26T08:33:49.964Z,3.05
2022-07-26T08:36:19.147Z,2.70
2022-07-26T08:38:48.443Z,3.17
2022-07-26T08:41:17.934Z,2.92
2022-07-26T08:43:52.646Z,3.25
2022-07-26T08:46:27.457Z,3.15
2022-07-26T08:48:56.719Z,3.17
2022-07-26T08:51:27.014Z,3.00
2022-07-26T08:54:04.685Z,2.80
2022-07-26T08:56:35.667Z,2.88
2022-07-26T09:01:36.828Z,3.47
2022-07-26T09:04:31.479Z,3.30
2022-07-26T09:07:04.587Z,2.88
2022-07-26T09:09:34.239Z,3.40
2022-07-26T09:12:17.695Z,3.47
2022-07-26T09:14:47.558Z,3.50
2022-07-26T09:17:21.231Z,3.75
2022-07-26T09:20:09.381Z,4.05
2022-07-26T09:22:38.855Z,3.42
2022-07-26T09:25:22.478Z,2.90
2022-07-26T09:27:51.471Z,3.22
2022-07-26T09:30:20.768Z,3.53
2022-07-26T09:33:02.305Z,3.35
2022-07-26T09:35:50.088Z,3.40
2022-07-26T09:38:20.832Z,3.60
2022-07-26T09:40:50.883Z,3.55
2022-07-26T09:43:24.453Z,3.28
2022-07-26T09:46:06.057Z,3.70
2022-07-26T09:49:08.253Z,3.30
2022-07-26T09:51:39.152Z,3.70
2022-07-26T09:54:08.180Z,2.67
2022-07-26T09:56:49.846Z,3.03
2022-07-26T09:59:21.675Z,2.95
2022-07-26T10:01:51.729Z,2.95
2022-07-26T10:04:22.757Z,3.10
2022-07-26T10:06:51.531Z,3.42
2022-07-26T10:09:20.599Z,3.17
2022-07-26T10:11:54.323Z,2.80
2022-07-26T10:14:45.824Z,3.28
2022-07-26T10:17:49.395Z,3.25
2022-07-26T10:20:51.945Z,3.47
2022-07-26T10:23:42.472Z,3.85
2022-07-26T10:26:37.034Z,3.35
2022-07-26T10:29:28.070Z,2.97
2022-07-26T10:32:17.510Z,2.92
2022-07-26T10:34:46.443Z,3.75
2022-07-26T10:37:28.095Z,3.28
2022-07-26T10:40:22.756Z,3.55
2022-07-26T10:42:51.177Z,3.65
2022-07-26T10:45:23.379Z,3.67
2022-07-26T10:48:12.233Z,3.40
2022-07-26T10:50:41.661Z,3.35
2022-07-26T10:53:18.625Z,3.60
2022-07-26T10:55:51.954Z,3.67
2022-07-26T10:58:21.289Z,3.67
2022-07-26T11:00:58.997Z,3.80
2022-07-26T11:03:38.893Z,3.50
2022-07-26T11:06:14.705Z,3.53
2022-07-26T11:08:48.335Z,3.90
2022-07-26T11:11:30.358Z,3.10
2022-07-26T11:14:10.917Z,3.30
2022-07-26T11:16:41.311Z,3.88
2022-07-26T11:19:18.427Z,3.50
2022-07-26T11:21:55.663Z,3.38
2022-07-26T11:24:26.872Z,3.33
2022-07-26T11:26:55.885Z,3.13
2022-07-26T11:29:38.779Z,3.00
2022-07-26T11:32:19.017Z,3.17
2022-07-26T11:34:48.005Z,3.47
2022-07-26T11:37:16.330Z,2.83
2022-07-26T11:39:48.116Z,3.40
2022-07-26T11:42:19.658Z,3.20
2022-07-26T11:44:50.078Z,3.28
2022-07-26T11:47:20.503Z,3.28
2022-07-26T11:50:01.031Z,3.20
2022-07-26T11:52:37.971Z,4.00
2022-07-26T11:55:09.780Z,3.40
2022-07-26T11:57:38.340Z,4.25
2022-07-26T12:00:08.779Z,3.88
2022-07-26T12:02:39.911Z,3.90
2022-07-26T12:05:16.449Z,4.00
2022-07-26T12:07:56.943Z,3.90
2022-07-26T12:10:29.484Z,3.40
2022-07-26T12:13:12.147Z,3.40
2022-07-26T12:15:49.316Z,3.50
2022-07-26T12:18:28.875Z,4.10
2022-07-26T12:21:06.588Z,3.30
2022-07-26T12:23:48.284Z,3.67
2022-07-26T12:26:26.093Z,4.18
2022-07-26T12:28:55.491Z,3.58
2022-07-26T12:31:30.584Z,3.63
2022-07-26T12:33:59.946Z,3.88
2022-07-26T12:36:30.024Z,3.65
2022-07-26T12:39:00.456Z,3.78
2022-07-26T12:41:39.211Z,4.18
2022-07-26T12:44:11.985Z,3.15
2022-07-26T12:46:41.067Z,3.45
2022-07-26T12:49:09.565Z,3.42
2022-07-26T12:51:38.003Z,3.63
2022-07-26T12:54:07.306Z,3.65
2022-07-26T12:56:37.109Z,3.20
2022-07-26T12:59:05.482Z,3.50
2022-07-26T13:01:34.446Z,3.15
2022-07-26T13:04:02.958Z,4.10
2022-07-26T13:06:32.933Z,3.20
2022-07-26T13:09:01.825Z,3.20
2022-07-26T13:11:30.356Z,3.40
2022-07-26T13:14:00.025Z,4.18
2022-07-26T13:16:28.375Z,3.53
2022-07-26T13:18:56.667Z,3.22
2022-07-26T13:21:25.048Z,3.28
2022-07-26T13:23:53.396Z,4.15
2022-07-26T13:26:21.873Z,3.83
2022-07-26T13:28:50.943Z,3.63
2022-07-26T13:31:20.721Z,3.50
2022-07-26T13:33:49.165Z,4.00
2022-07-26T13:36:17.579Z,3.67
2022-07-26T13:38:45.969Z,3.70
2022-07-26T13:41:14.424Z,4.20
2022-07-26T13:43:42.796Z,3.70
2022-07-26T13:46:11.511Z,3.58
2022-07-26T13:48:57.941Z,3.33
2022-07-26T13:51:49.937Z,3.53
2022-07-26T13:54:20.264Z,3.25
2022-07-26T13:56:49.526Z,4.00
2022-07-26T13:59:18.115Z,3.30
2022-07-26T14:01:46.758Z,3.10
2022-07-26T14:04:17.145Z,3.60
2022-07-26T14:06:45.734Z,3.80
2022-07-26T14:09:15.407Z,3.85
2022-07-26T14:11:44.490Z,3.03
2022-07-26T14:14:13.862Z,2.92
2022-07-26T14:16:42.553Z,3.57
2022-07-26T14:19:11.236Z,2.90
2022-07-26T14:21:47.482Z,2.75
2022-07-26T14:24:29.087Z,3.10
2022-07-26T14:26:59.721Z,3.13
2022-07-26T14:29:29.443Z,3.17
2022-07-26T14:31:57.988Z,3.30
2022-07-26T14:34:26.674Z,2.70
2022-07-26T14:36:56.286Z,3.03
2022-07-26T14:39:24.656Z,3.20
2022-07-26T14:41:53.618Z,3.90
2022-07-26T14:44:22.033Z,3.60
2022-07-26T14:46:50.332Z,3.75
2022-07-26T14:49:18.849Z,3.40
2022-07-26T14:51:47.936Z,3.50
2022-07-26T14:54:18.159Z,4.07
2022-07-26T14:56:46.571Z,3.33
2022-07-26T14:59:14.880Z,3.72
2022-07-26T15:01:43.233Z,3.35
2022-07-26T15:04:12.144Z,4.20
2022-07-26T15:06:40.697Z,3.90
2022-07-26T15:09:08.976Z,3.38
2022-07-26T15:11:38.788Z,2.85
2022-07-26T15:14:07.216Z,3.35
2022-07-26T15:16:35.832Z,3.28
2022-07-26T15:19:04.342Z,2.60
2022-07-26T15:21:32.745Z,3.10
2022-07-26T15:24:01.080Z,3.42
2022-07-26T15:26:29.392Z,3.05
2022-07-26T15:28:59.093Z,3.03
2022-07-26T15:31:37.168Z,3.17
2022-07-26T15:34:08.953Z,3.33
2022-07-26T15:36:37.865Z,3.10
2022-07-26T15:39:16.504Z,3.88
2022-07-26T15:41:46.172Z,3.30
2022-07-26T15:44:18.185Z,3.17
2022-07-26T15:46:48.671Z,3.78
2022-07-26T15:49:18.316Z,3.97
2022-07-26T15:51:47.348Z,3.30
2022-07-26T15:54:16.986Z,3.65
2022-07-26T15:56:45.746Z,3.30
2022-07-26T15:59:15.529Z,3.30
2022-07-26T16:01:43.844Z,3.45
2022-07-26T16:04:12.727Z,3.15
2022-07-26T16:06:42.234Z,3.20
2022-07-26T16:09:17.241Z,3.70
2022-07-26T16:11:47.326Z,3.25
2022-07-26T16:14:17.610Z,3.75
2022-07-26T16:16:46.322Z,5.97
2022-07-26T16:19:15.102Z,3.38
2022-07-26T16:21:43.789Z,3.60
2022-07-26T16:24:12.066Z,2.95
2022-07-26T16:26:40.843Z,3.47
2022-07-26T16:29:09.508Z,3.22
2022-07-26T16:31:41.531Z,3.40
2022-07-26T16:34:10.421Z,3.47
2022-07-26T16:36:39.385Z,3.28
2022-07-26T16:39:08.856Z,3.58
2022-07-26T16:41:37.574Z,3.30
2022-07-26T16:44:06.452Z,2.97
2022-07-26T16:46:34.825Z,3.03
2022-07-26T16:49:05.065Z,3.25
2022-07-26T16:51:33.627Z,3.25
2022-07-26T16:54:01.960Z,2.40
2022-07-26T16:56:30.397Z,2.90
2022-07-26T16:58:58.726Z,2.90
2022-07-26T17:01:27.127Z,3.38
2022-07-26T17:03:55.567Z,5.45
2022-07-26T17:06:25.535Z,3.17
2022-07-26T17:08:53.946Z,3.00
2022-07-26T17:11:22.245Z,3.03
2022-07-26T17:13:50.746Z,3.05
2022-07-26T17:16:24.282Z,2.92
2022-07-26T17:18:54.860Z,3.22
2022-07-26T17:21:24.995Z,3.35
2022-07-26T17:23:53.560Z,3.00
2022-07-26T17:26:22.099Z,3.17
2022-07-26T17:28:50.446Z,3.10
2022-07-26T17:31:18.755Z,2.70
2022-07-26T17:33:47.279Z,2.53
2022-07-26T17:36:29.002Z,2.90
2022-07-26T17:39:02.667Z,3.33
2022-07-26T17:41:32.638Z,3.03
2022-07-26T17:44:03.323Z,3.00
2022-07-26T17:46:33.381Z,2.90
2022-07-26T17:49:02.585Z,3.10
2022-07-26T17:51:32.250Z,2.35
2022-07-26T17:54:00.893Z,3.10
2022-07-26T17:56:29.727Z,2.78
2022-07-26T17:58:58.343Z,3.40
2022-07-26T18:01:28.267Z,3.13
2022-07-26T18:03:56.707Z,3.25
2022-07-26T18:06:24.971Z,2.97
2022-07-26T18:08:54.731Z,2.97
2022-07-26T18:11:23.004Z,2.90
2022-07-26T18:13:51.334Z,2.60
2022-07-26T18:16:19.844Z,2.92
2022-07-26T18:18:48.189Z,2.70
2022-07-26T18:21:16.501Z,3.30
2022-07-26T18:24:06.765Z,2.90
2022-07-26T18:26:34.855Z,2.72
2022-07-26T18:29:03.995Z,3.33
2022-07-26T18:31:32.410Z,3.10
2022-07-26T18:34:05.930Z,2.88
2022-07-26T18:36:35.747Z,3.63
2022-07-26T18:39:04.316Z,3.05
2022-07-26T18:41:34.284Z,3.00
2022-07-26T18:44:06.217Z,3.05
2022-07-26T18:46:34.609Z,3.10
2022-07-26T18:49:03.099Z,3.05
2022-07-26T18:51:31.854Z,3.03
2022-07-26T18:54:00.447Z,3.30
2022-07-26T18:56:28.909Z,3.03
2022-07-26T18:58:58.626Z,3.13
2022-07-26T19:01:27.109Z,2.67
2022-07-26T19:03:55.560Z,3.90
2022-07-26T19:06:24.703Z,3.38
2022-07-26T19:08:53.508Z,2.92
2022-07-26T19:11:21.832Z,2.90
2022-07-26T19:13:50.187Z,3.25
2022-07-26T19:16:20.030Z,3.22
2022-07-26T19:18:50.806Z,3.17
2022-07-26T19:21:21.158Z,3.55
2022-07-26T19:23:49.650Z,2.85
2022-07-26T19:26:18.020Z,3.00
2022-07-26T19:28:46.541Z,3.08
2022-07-26T19:31:15.264Z,3.08
2022-07-26T19:33:45.074Z,2.70
2022-07-26T19:36:15.970Z,2.92
2022-07-26T19:38:54.122Z,3.78
2022-07-26T19:41:22.440Z,3.42
2022-07-26T19:43:50.771Z,4.57
2022-07-26T19:46:19.296Z,3.40
2022-07-26T19:48:49.103Z,3.60
2022-07-26T19:51:17.513Z,2.88
2022-07-26T19:53:46.252Z,2.72
2022-07-26T19:56:15.033Z,2.83
2022-07-26T19:58:43.439Z,3.00
2022-07-26T20:01:11.838Z,2.67
2022-07-26T20:03:40.266Z,2.53
2022-07-26T20:06:10.133Z,2.63
2022-07-26T20:08:39.755Z,3.05
2022-07-26T20:11:08.176Z,2.55
2022-07-26T20:13:36.619Z,3.03
2022-07-26T20:16:06.017Z,2.58
2022-07-26T20:18:34.469Z,2.50
2022-07-26T20:21:03.208Z,2.88
2022-07-26T20:23:33.918Z,2.83
2022-07-26T20:28:30.573Z,2.67
2022-07-26T20:30:59.294Z,2.83
2022-07-26T20:33:27.741Z,3.03
2022-07-26T20:35:56.059Z,3.13
2022-07-26T20:38:25.181Z,3.10
2022-07-26T20:40:54.898Z,2.70
2022-07-26T20:43:23.197Z,2.30
2022-07-26T20:48:22.330Z,2.90
2022-07-26T20:50:50.826Z,2.70
2022-07-26T20:53:19.125Z,2.97
2022-07-26T20:55:47.447Z,3.22
2022-07-26T20:58:17.923Z,2.90
2022-07-26T21:00:46.268Z,2.92
2022-07-26T21:03:16.786Z,2.53
2022-07-26T21:05:45.183Z,3.17
2022-07-26T21:08:13.771Z,3.28
2022-07-26T21:10:42.189Z,2.90
2022-07-26T21:13:10.434Z,2.88
2022-07-26T21:15:42.106Z,3.20
2022-07-26T21:18:12.257Z,3.78
2022-07-26T21:20:40.821Z,3.47
2022-07-26T21:23:17.366Z,3.47
2022-07-26T21:25:46.822Z,3.70
2022-07-26T21:28:15.316Z,3.08
2022-07-26T21:30:45.082Z,2.80
2022-07-26T21:33:13.793Z,3.33
2022-07-26T21:35:43.099Z,3.20
2022-07-26T21:38:11.839Z,3.10
2022-07-26T21:40:40.268Z,3.33
2022-07-26T21:43:08.660Z,2.97
2022-07-26T21:45:37.070Z,2.83
2022-07-26T21:48:07.819Z,3.17
2022-07-26T21:53:04.312Z,2.88
2022-07-26T21:55:32.667Z,3.22
2022-07-26T21:58:01.104Z,2.92
2022-07-26T22:00:29.613Z,3.08
2022-07-26T22:02:57.913Z,2.45
2022-07-26T22:05:38.088Z,2.72
2022-07-26T22:08:13.614Z,3.45
2022-07-26T22:10:45.434Z,2.50
2022-07-26T22:13:14.156Z,2.92
2022-07-26T22:15:43.120Z,2.88
2022-07-26T22:18:11.576Z,2.60
2022-07-26T22:20:41.486Z,2.80
2022-07-26T22:23:12.034Z,2.53
2022-07-26T22:25:40.909Z,3.30
2022-07-26T22:28:10.865Z,3.08
2022-07-26T22:30:40.544Z,2.45
2022-07-26T22:33:11.685Z,2.90
2022-07-26T22:35:41.497Z,2.97
2022-07-26T22:38:11.558Z,2.80
2022-07-26T22:40:41.575Z,2.72
2022-07-26T22:43:10.803Z,3.00
2022-07-26T22:45:39.969Z,2.63
2022-07-26T22:48:09.333Z,2.90
2022-07-26T22:50:37.856Z,2.70
2022-07-26T22:53:07.580Z,2.67
2022-07-26T22:55:35.937Z,2.90
2022-07-26T22:58:04.434Z,3.13
2022-07-26T23:00:32.895Z,2.92
2022-07-26T23:03:01.265Z,2.80
2022-07-26T23:05:45.390Z,3.08
2022-07-26T23:11:06.107Z,3.50
2022-07-26T23:13:34.875Z,2.90
2022-07-26T23:16:03.261Z,3.20
2022-07-26T23:18:34.682Z,3.35
2022-07-26T23:21:04.210Z,3.40
2022-07-26T23:23:34.055Z,3.67
2022-07-26T23:26:02.459Z,3.15
2022-07-26T23:28:37.152Z,3.60
2022-07-26T23:31:09.556Z,3.00
2022-07-26T23:33:52.971Z,3.20
2022-07-26T23:36:24.890Z,3.30
2022-07-26T23:38:55.669Z,3.38
2022-07-26T23:43:52.888Z,3.50
2022-07-26T23:46:21.589Z,3.47
2022-07-26T23:48:50.285Z,3.67
2022-07-26T23:51:19.453Z,3.70
2022-07-26T23:53:48.455Z,3.45
2022-07-26T23:56:18.514Z,4.43
2022-07-26T23:58:46.989Z,3.83
